createdAt,value
2019-02-12T00:03:02.061Z,36.87
2019-02-12T00:08:09.572Z,494.27
2019-02-12T00:13:17.071Z,353.13
2019-02-12T00:18:24.571Z,273.57
2019-02-12T00:23:32.002Z,85.77
2019-02-12T00:28:39.403Z,15.90
2019-02-12T00:33:46.987Z,10.73
2019-02-12T00:44:03.417Z,42.38
2019-02-12T00:49:10.989Z,118.40
2019-02-12T00:54:26.568Z,170.40
2019-02-12T00:59:40.923Z,166.43
2019-02-12T01:04:57.338Z,89.63
2019-02-12T01:10:15.025Z,25.92
2019-02-12T01:15:30.089Z,7.20
2019-02-12T01:20:46.463Z,3.80
2019-02-12T01:26:07.873Z,3.30
2019-02-12T01:31:23.418Z,2.50
2019-02-12T01:36:42.228Z,2.13
2019-02-12T01:41:51.611Z,2.00
2019-02-12T01:47:04.464Z,2.37
2019-02-12T01:52:14.514Z,1.85
2019-02-12T01:57:32.966Z,1.90
2019-02-12T02:03:03.040Z,2.13
2019-02-12T02:08:15.401Z,1.65
2019-02-12T02:13:26.140Z,2.00
2019-02-12T02:18:33.138Z,4.40
2019-02-12T02:23:40.514Z,181.67
2019-02-12T02:28:47.513Z,71.47
2019-02-12T02:33:54.911Z,15.70
2019-02-12T02:39:02.384Z,3.75
2019-02-12T02:44:09.926Z,3.13
2019-02-12T02:49:17.386Z,1.77
2019-02-12T02:54:24.963Z,1.60
2019-02-12T02:59:32.395Z,1.80
2019-02-12T03:04:40.678Z,1.60
2019-02-12T03:09:48.486Z,1.32
2019-02-12T03:14:55.888Z,1.50
2019-02-12T03:20:15.580Z,6.25
2019-02-12T03:25:23.111Z,2.30
2019-02-12T03:30:30.423Z,1.40
2019-02-12T03:40:45.086Z,1.07
2019-02-12T03:45:52.498Z,1.20
2019-02-12T03:51:00.718Z,1.27
2019-02-12T03:56:07.815Z,1.50
2019-02-12T04:01:15.021Z,1.10
2019-02-12T04:06:22.387Z,0.80
2019-02-12T04:11:30.750Z,0.80
2019-02-12T04:16:38.093Z,0.90
2019-02-12T04:21:45.561Z,1.02
2019-02-12T04:26:52.973Z,0.80
2019-02-12T04:32:00.403Z,0.80
2019-02-12T04:37:08.097Z,0.90
2019-02-12T08:47:04.937Z,373.77
2019-02-12T08:52:12.840Z,281.07
2019-02-12T08:57:20.270Z,145.63
2019-02-12T09:02:27.653Z,58.97
2019-02-12T09:07:34.974Z,31.77
2019-02-12T09:12:42.672Z,6.50
2019-02-12T09:17:50.066Z,3.40
2019-02-12T09:22:57.819Z,2.47
2019-02-12T09:38:19.371Z,1.90
2019-02-12T09:43:26.878Z,1.80
2019-02-12T09:48:34.117Z,1.60
2019-02-12T09:53:41.482Z,1.90
2019-02-12T09:58:48.789Z,1.70
2019-02-12T10:03:56.755Z,1.40
2019-02-12T10:09:05.370Z,1.45
2019-02-12T10:14:12.739Z,1.98
2019-02-12T10:19:20.047Z,1.50
2019-02-12T10:24:27.997Z,1.60
2019-02-12T10:29:35.378Z,1.72
2019-02-12T10:34:42.572Z,1.40
2019-02-12T10:39:49.962Z,1.73
2019-02-12T10:44:57.369Z,1.43
2019-02-12T10:50:05.377Z,1.43
2019-02-12T10:55:13.406Z,1.50
2019-02-12T11:00:21.133Z,1.55
2019-02-12T11:05:28.522Z,1.60
2019-02-12T11:10:35.939Z,1.60
2019-02-12T11:15:43.539Z,1.25
2019-02-12T11:20:50.947Z,1.37
2019-02-12T11:25:58.449Z,1.67
2019-02-12T11:31:05.850Z,1.33
2019-02-12T11:36:14.378Z,1.67
2019-02-12T11:41:22.363Z,1.75
2019-02-12T11:46:30.024Z,1.73
2019-02-12T11:51:38.248Z,1.33
2019-02-12T11:56:46.371Z,1.60
2019-02-12T12:01:53.770Z,1.57
2019-02-12T12:07:02.055Z,1.30
2019-02-12T12:12:10.007Z,1.70
2019-02-12T12:17:18.369Z,1.30
2019-02-12T12:22:26.216Z,1.30
2019-02-12T12:27:34.055Z,1.40
2019-02-12T12:32:41.461Z,1.30
2019-02-12T12:37:48.872Z,1.40
2019-02-12T12:42:56.275Z,1.10
2019-02-12T12:48:03.700Z,1.60
2019-02-12T12:53:11.036Z,1.10
2019-02-12T12:58:18.593Z,1.10
2019-02-12T13:03:26.128Z,1.10
2019-02-12T13:08:33.605Z,0.80
2019-02-12T13:13:41.134Z,1.00
2019-02-12T13:18:48.511Z,1.00
2019-02-12T13:23:55.914Z,1.10
2019-02-12T13:29:03.551Z,1.07
2019-02-12T13:34:10.863Z,1.10
2019-02-12T13:39:17.868Z,1.20
2019-02-12T13:44:25.154Z,1.00
2019-02-12T13:49:32.528Z,1.12
2019-02-12T13:54:39.943Z,1.10
2019-02-12T13:59:47.382Z,1.10
2019-02-12T14:04:54.972Z,1.17
2019-02-12T14:10:02.417Z,1.30
2019-02-12T14:15:09.963Z,1.20
2019-02-12T14:20:17.487Z,1.20
2019-02-12T14:25:25.891Z,1.30
2019-02-12T14:30:33.030Z,1.22
2019-02-12T14:35:40.501Z,1.50
2019-02-12T14:40:47.900Z,1.40
2019-02-12T14:45:54.897Z,1.20
2019-02-12T14:51:14.689Z,1.30
2019-02-12T14:56:21.957Z,1.42
2019-02-12T15:01:29.494Z,1.40
2019-02-12T15:06:37.141Z,1.10
2019-02-12T15:11:44.527Z,1.10
2019-02-12T15:27:05.911Z,1.50
2019-02-12T15:32:13.370Z,0.93
2019-02-12T15:37:21.031Z,1.83
2019-02-12T15:42:29.565Z,1.50
2019-02-12T15:47:37.882Z,25.13
2019-02-12T15:52:48.507Z,180.43
2019-02-12T15:57:56.582Z,263.60
2019-02-12T16:03:04.635Z,209.00
2019-02-12T16:13:18.993Z,271.13
2019-02-12T16:23:33.914Z,167.18
2019-02-12T16:28:41.513Z,134.90
2019-02-12T16:33:49.039Z,57.60
2019-02-12T16:38:56.559Z,19.37
2019-02-12T16:44:06.006Z,7.20
2019-02-12T16:49:14.768Z,9.28
2019-02-12T16:54:22.088Z,122.13
2019-02-12T16:59:29.656Z,122.77
2019-02-12T17:04:48.877Z,69.97
2019-02-12T17:09:53.770Z,93.60
2019-02-12T17:15:02.947Z,218.83
2019-02-12T17:20:11.097Z,64.10
2019-02-12T17:25:24.220Z,165.47
2019-02-12T17:30:31.877Z,145.65
2019-02-12T17:35:39.868Z,145.10
2019-02-12T17:40:47.375Z,44.10
2019-02-12T17:46:00.262Z,177.87
2019-02-12T17:51:16.666Z,73.87
2019-02-12T18:01:49.293Z,22.57
2019-02-12T18:07:04.587Z,19.92
2019-02-12T18:12:19.478Z,18.80
2019-02-12T18:17:33.238Z,17.70
2019-02-12T18:22:46.516Z,16.53
2019-02-12T18:28:16.353Z,15.97
2019-02-12T18:33:35.021Z,15.43
2019-02-12T18:38:53.252Z,13.72
2019-02-12T18:44:06.394Z,13.45
2019-02-12T18:49:26.837Z,12.68
2019-02-12T18:54:43.713Z,11.90
2019-02-12T19:00:02.956Z,12.20
2019-02-12T19:05:15.180Z,11.77
2019-02-12T19:10:28.279Z,10.80
2019-02-12T19:15:41.979Z,10.63
2019-02-12T19:20:57.544Z,10.18
2019-02-12T19:26:09.729Z,9.80
2019-02-12T19:31:23.324Z,9.80
2019-02-12T19:36:39.221Z,8.90
2019-02-12T19:41:57.369Z,8.40
2019-02-12T19:47:12.495Z,9.07
2019-02-12T19:52:26.558Z,8.20
2019-02-12T19:57:40.011Z,7.87
2019-02-12T20:03:02.364Z,6.97
2019-02-12T20:08:22.708Z,7.10
2019-02-12T20:13:39.643Z,6.53
2019-02-12T20:18:55.542Z,6.60
2019-02-12T20:24:13.027Z,7.10
2019-02-12T20:29:29.420Z,6.27
2019-02-12T20:34:52.140Z,6.23
2019-02-12T20:40:09.318Z,5.97
2019-02-12T20:45:27.754Z,5.60
2019-02-12T20:50:46.486Z,24.10
2019-02-12T20:56:22.312Z,86.42
2019-02-12T21:01:33.378Z,203.23
2019-02-12T21:06:47.676Z,320.93
2019-02-12T21:17:13.303Z,276.53
2019-02-12T21:27:51.350Z,294.00
2019-02-12T21:33:03.939Z,156.70
2019-02-12T21:38:22.609Z,265.57
2019-02-12T21:43:36.648Z,286.35
2019-02-12T21:48:46.742Z,224.30
2019-02-12T21:54:02.019Z,148.87
2019-02-12T21:59:15.142Z,164.33
2019-02-12T22:09:44.477Z,225.20
2019-02-12T22:15:02.706Z,258.50
2019-02-12T22:20:21.333Z,143.57
2019-02-12T22:25:27.628Z,254.87
2019-02-12T22:30:43.035Z,434.20
2019-02-12T22:35:57.496Z,201.82
2019-02-12T22:41:11.138Z,198.50
2019-02-12T22:46:24.118Z,262.55
2019-02-12T22:51:38.419Z,208.60
2019-02-12T22:56:52.617Z,316.13
2019-02-12T23:02:02.790Z,261.33
2019-02-12T23:07:29.149Z,127.78
2019-02-12T23:12:40.225Z,86.00
2019-02-12T23:23:07.038Z,150.40
2019-02-12T23:28:15.521Z,185.70
2019-02-12T23:33:25.250Z,174.57
2019-02-12T23:38:33.831Z,224.33
2019-02-12T23:48:49.832Z,43.97
2019-02-12T23:54:08.383Z,127.23
2019-02-12T23:59:15.990Z,78.20
